Time;durP1;ratioP1;P1;durP2;ratioP2;P2;SDS_P1;SDS_P2;PMS_P1;PMS_P2;Temp;Humidity;BMP_temperature;BMP_pressure;BME280_temperature;BME280_humidity;BME280_pressure;Samples;Min_cycle;Max_cycle;Signal;HPM_P1;HPM_P2
2022/10/09 00:01:15;;;;;;;5.60;2.90;;;;;;;-143.85;100.00;70650.75;4940107;29;20031;-90
2022/10/09 00:03:43;;;;;;;4.63;3.35;;;;;;;-143.85;100.00;70650.75;4940250;29;20472;-92
2022/10/09 00:06:13;;;;;;;7.70;2.85;;;;;;;-143.85;100.00;70650.75;4940432;28;20035;-91
2022/10/09 00:08:39;;;;;;;7.72;2.63;;;;;;;-143.85;100.00;70650.75;4940314;29;20155;-92
2022/10/09 00:11:06;;;;;;;5.32;3.45;;;;;;;-143.85;100.00;70650.75;4944154;29;20126;-91
2022/10/09 00:13:31;;;;;;;6.05;2.22;;;;;;;-143.85;100.00;70650.75;4939950;29;20118;-92
2022/10/09 00:15:57;;;;;;;5.47;3.58;;;;;;;-143.85;100.00;70650.75;4940032;29;20619;-92
2022/10/09 00:18:22;;;;;;;8.20;2.78;;;;;;;-143.85;100.00;70650.75;4939827;29;20028;-93
2022/10/09 00:20:47;;;;;;;6.88;2.58;;;;;;;-143.85;100.00;70650.75;4939783;29;20035;-93
2022/10/09 00:23:15;;;;;;;12.27;3.33;;;;;;;-143.85;100.00;70650.75;4939868;29;20058;-93
2022/10/09 00:25:53;;;;;;;5.53;2.45;;;;;;;-143.85;100.00;70650.75;4968254;28;20471;-92
2022/10/09 00:28:20;;;;;;;8.68;2.42;;;;;;;-143.85;100.00;70650.75;4939662;29;20035;-91
2022/10/09 00:30:46;;;;;;;2.92;2.40;;;;;;;-143.85;100.00;70650.75;4939668;29;20043;-92
2022/10/09 00:33:11;;;;;;;5.10;2.50;;;;;;;-143.85;100.00;70650.75;4939680;29;20027;-91
2022/10/09 00:35:38;;;;;;;2.58;1.63;;;;;;;-143.85;100.00;70650.75;4939415;29;20027;-92
2022/10/09 00:38:03;;;;;;;6.95;3.10;;;;;;;-143.85;100.00;70650.75;4939784;29;20381;-93
2022/10/09 00:40:29;;;;;;;4.80;2.47;;;;;;;-143.85;100.00;70650.75;4939614;29;20086;-92
2022/10/09 00:42:56;;;;;;;2.95;1.90;;;;;;;-143.85;100.00;70650.75;4939082;29;20121;-92
2022/10/09 00:45:21;;;;;;;6.50;2.25;;;;;;;-143.85;100.00;70650.75;4939526;29;20031;-90
2022/10/09 00:47:54;;;;;;;2.10;1.90;;;;;;;-143.85;100.00;70650.75;4939437;29;20484;-90
2022/10/09 00:50:55;;;;;;;2.90;2.05;;;;;;;-143.85;100.00;70650.75;4939295;29;20134;-92
2022/10/09 00:53:25;;;;;;;7.63;2.42;;;;;;;-143.85;100.00;70650.75;4939423;29;20027;-90
2022/10/09 00:55:51;;;;;;;4.63;3.20;;;;;;;-143.85;100.00;70650.75;4956269;29;20059;-92
2022/10/09 00:58:17;;;;;;;5.28;2.22;;;;;;;-143.85;100.00;70650.75;4939296;29;20077;-90
2022/10/09 01:00:42;;;;;;;6.93;3.38;;;;;;;-143.85;100.00;70650.75;4939105;29;20039;-92
2022/10/09 01:03:08;;;;;;;6.57;2.80;;;;;;;-143.85;100.00;70650.75;4939144;29;20479;-89
2022/10/09 01:06:01;;;;;;;6.88;2.40;;;;;;;-143.85;100.00;70650.75;4929332;29;20038;-90
2022/10/09 01:09:00;;;;;;;5.90;2.03;;;;;;;-143.85;100.00;70650.75;4926557;29;20034;-91
2022/10/09 01:11:43;;;;;;;6.40;3.92;;;;;;;-143.85;100.00;70650.75;4924996;29;20054;-94
2022/10/09 01:14:31;;;;;;;7.47;2.45;;;;;;;-143.85;100.00;70650.75;4956382;29;20058;-94
2022/10/09 01:17:23;;;;;;;3.97;2.20;;;;;;;-143.85;100.00;70650.75;4934509;29;20027;-94
2022/10/09 01:20:10;;;;;;;2.33;1.73;;;;;;;-143.85;100.00;70650.75;4956090;29;20036;-92
2022/10/09 01:23:00;;;;;;;2.08;1.80;;;;;;;-143.85;100.00;70650.75;4929787;29;20118;-93
2022/10/09 01:25:31;;;;;;;4.25;1.92;;;;;;;-143.85;100.00;70650.75;4955386;29;20503;-93
2022/10/09 01:27:57;;;;;;;4.50;1.75;;;;;;;-143.85;100.00;70650.75;4939109;29;20460;-92
2022/10/09 01:30:22;;;;;;;5.60;2.95;;;;;;;-143.85;100.00;70650.75;4938529;29;20034;-93
2022/10/09 01:32:51;;;;;;;2.38;1.63;;;;;;;-143.85;100.00;70650.75;4955929;29;20023;-93
2022/10/09 01:35:18;;;;;;;2.95;1.98;;;;;;;-143.85;100.00;70650.75;4938567;29;20055;-92
2022/10/09 01:37:46;;;;;;;9.35;3.50;;;;;;;-143.85;100.00;70650.75;4938925;29;20055;-92
2022/10/09 01:40:14;;;;;;;4.93;3.40;;;;;;;-143.85;100.00;70650.75;4938503;29;20031;-93
2022/10/09 01:42:40;;;;;;;4.80;3.08;;;;;;;-143.85;100.00;70650.75;4938659;29;20123;-92
2022/10/09 01:45:06;;;;;;;2.50;2.17;;;;;;;-143.85;100.00;70650.75;4938413;29;20051;-93
2022/10/09 01:47:31;;;;;;;7.30;3.00;;;;;;;-143.85;100.00;70650.75;4937908;29;20411;-94
2022/10/09 01:50:08;;;;;;;5.85;2.75;;;;;;;-143.85;100.00;70650.75;4930729;29;20106;-94
2022/10/09 01:52:59;;;;;;;3.45;1.70;;;;;;;-143.85;100.00;70650.75;4933735;29;20094;-89
2022/10/09 01:55:43;;;;;;;4.93;1.80;;;;;;;-143.85;100.00;70650.75;4944617;29;20035;-92
2022/10/09 01:58:25;;;;;;;2.22;1.55;;;;;;;-143.85;100.00;70650.75;4938271;29;20406;-91
2022/10/09 02:01:30;;;;;;;2.78;1.58;;;;;;;-143.85;100.00;70650.75;4954999;29;20487;-90
2022/10/09 02:03:58;;;;;;;2.03;1.70;;;;;;;-143.85;100.00;70650.75;4937847;29;20039;-90
2022/10/09 02:06:26;;;;;;;5.85;1.67;;;;;;;-143.85;100.00;70650.75;4938434;29;20124;-90
2022/10/09 02:08:54;;;;;;;1.80;1.55;;;;;;;-143.85;100.00;70650.75;4937822;29;20028;-90
2022/10/09 02:11:20;;;;;;;2.95;1.48;;;;;;;-143.85;100.00;70650.75;4955535;28;20051;-93
2022/10/09 02:13:48;;;;;;;2.25;1.95;;;;;;;-143.85;100.00;70650.75;4938045;29;20039;-92
2022/10/09 02:16:35;;;;;;;2.13;1.20;;;;;;;-143.85;100.00;70650.75;4937948;29;20547;-93
2022/10/09 02:19:07;;;;;;;3.55;2.15;;;;;;;-143.85;100.00;70650.75;4944124;29;20457;-91
2022/10/09 02:21:44;;;;;;;1.60;1.50;;;;;;;-143.85;100.00;70650.75;4938016;29;20030;-91
2022/10/09 02:24:14;;;;;;;3.28;1.45;;;;;;;-143.85;100.00;70650.75;4937944;29;20090;-89
2022/10/09 02:26:41;;;;;;;3.58;1.77;;;;;;;-143.85;100.00;70650.75;4938063;29;20090;-91
2022/10/09 02:29:07;;;;;;;2.95;2.00;;;;;;;-143.85;100.00;70650.75;4938236;29;20031;-90
2022/10/09 02:31:36;;;;;;;2.13;1.83;;;;;;;-143.85;100.00;70650.75;4937565;28;20462;-89
2022/10/09 02:34:12;;;;;;;3.67;1.75;;;;;;;-143.85;100.00;70650.75;4937828;29;20102;-90
2022/10/09 02:36:38;;;;;;;3.58;1.65;;;;;;;-143.85;100.00;70650.75;4938022;29;20027;-89
2022/10/09 02:39:05;;;;;;;4.88;2.15;;;;;;;-143.85;100.00;70650.75;4924480;29;20482;-91
2022/10/09 02:41:30;;;;;;;2.55;1.40;;;;;;;-143.85;100.00;70650.75;4937834;29;20027;-89
2022/10/09 02:43:56;;;;;;;2.50;1.95;;;;;;;-143.85;100.00;70650.75;4937725;29;20133;-92
2022/10/09 02:46:22;;;;;;;2.15;1.90;;;;;;;-143.85;100.00;70650.75;4937814;29;20034;-86
2022/10/09 02:48:48;;;;;;;4.72;2.45;;;;;;;-143.85;100.00;70650.75;4937685;29;20058;-85
2022/10/09 02:51:13;;;;;;;2.80;1.80;;;;;;;-143.85;100.00;70650.75;4937519;29;20130;-85
2022/10/09 02:53:39;;;;;;;2.53;1.50;;;;;;;-143.85;100.00;70650.75;4937435;29;20455;-84
2022/10/09 02:56:04;;;;;;;3.50;2.20;;;;;;;-143.85;100.00;70650.75;4954330;29;20031;-84
2022/10/09 02:58:32;;;;;;;2.40;1.77;;;;;;;-143.85;100.00;70650.75;4937383;29;20535;-85
2022/10/09 03:00:58;;;;;;;2.08;1.88;;;;;;;-143.85;100.00;70650.75;4940442;29;20038;-85
2022/10/09 03:03:24;;;;;;;1.80;1.63;;;;;;;-143.85;100.00;70650.75;4941030;29;20031;-85
2022/10/09 03:06:02;;;;;;;2.78;2.03;;;;;;;-143.85;100.00;70650.75;4958123;28;20027;-85
2022/10/09 03:08:27;;;;;;;1.63;1.33;;;;;;;-143.85;100.00;70650.75;4940774;29;20578;-85
2022/10/09 03:10:53;;;;;;;4.13;2.08;;;;;;;-143.85;100.00;70650.75;4941128;29;20047;-85
2022/10/09 03:13:18;;;;;;;2.50;1.65;;;;;;;-143.85;100.00;70650.75;4940889;29;20510;-85
2022/10/09 03:15:44;;;;;;;4.35;2.53;;;;;;;-143.85;100.00;70650.75;4940934;29;20032;-84
2022/10/09 03:18:09;;;;;;;3.15;2.50;;;;;;;-143.85;100.00;70650.75;4940711;29;20023;-85
2022/10/09 03:20:34;;;;;;;3.40;2.10;;;;;;;-143.85;100.00;70650.75;4940896;29;20031;-84
2022/10/09 03:23:00;;;;;;;3.60;1.75;;;;;;;-143.85;100.00;70650.75;4940775;29;20100;-84
2022/10/09 03:25:25;;;;;;;1.80;1.70;;;;;;;-143.85;100.00;70650.75;4940600;29;20114;-84
2022/10/09 03:27:51;;;;;;;3.92;2.28;;;;;;;-143.85;100.00;70650.75;4940610;29;20031;-84
2022/10/09 03:30:16;;;;;;;4.53;2.03;;;;;;;-143.85;100.00;70650.75;4940328;29;20027;-84
2022/10/09 03:32:42;;;;;;;4.22;2.13;;;;;;;-143.85;100.00;70650.75;4940962;29;20055;-84
2022/10/09 03:35:08;;;;;;;2.03;1.52;;;;;;;-143.85;100.00;70650.75;4940625;29;20490;-85
2022/10/09 03:37:33;;;;;;;2.80;1.60;;;;;;;-143.85;100.00;70650.75;4940497;29;20054;-84
2022/10/09 03:39:59;;;;;;;2.55;1.58;;;;;;;-143.85;100.00;70650.75;4940631;29;20063;-84
2022/10/09 03:42:24;;;;;;;2.17;1.98;;;;;;;-143.85;100.00;70650.75;4940111;29;20481;-84
2022/10/09 03:44:50;;;;;;;5.45;1.77;;;;;;;-143.85;100.00;70650.75;4940769;29;20472;-84
2022/10/09 03:47:16;;;;;;;2.75;1.70;;;;;;;-143.85;100.00;70650.75;4940255;29;20411;-84
2022/10/09 03:49:41;;;;;;;4.82;2.22;;;;;;;-143.85;100.00;70650.75;4939918;29;20047;-84
2022/10/09 03:52:07;;;;;;;2.45;1.65;;;;;;;-143.85;100.00;70650.75;4940296;29;20047;-84
2022/10/09 03:54:32;;;;;;;2.90;1.70;;;;;;;-143.85;100.00;70650.75;4940168;29;20494;-84
2022/10/09 03:56:57;;;;;;;2.00;1.75;;;;;;;-143.85;100.00;70650.75;4939786;29;20078;-84
2022/10/09 03:59:23;;;;;;;2.13;1.52;;;;;;;-143.85;100.00;70650.75;4939994;29;20483;-85
2022/10/09 04:01:49;;;;;;;2.83;1.45;;;;;;;-143.85;100.00;70650.75;4940217;29;20082;-84
2022/10/09 04:04:14;;;;;;;9.38;1.90;;;;;;;-143.85;100.00;70650.75;4939918;29;20521;-84
2022/10/09 04:06:40;;;;;;;4.22;2.25;;;;;;;-143.85;100.00;70650.75;4939295;28;20031;-84
2022/10/09 04:09:05;;;;;;;3.78;1.85;;;;;;;-143.85;100.00;70650.75;4939619;29;20033;-84
2022/10/09 04:11:31;;;;;;;2.33;1.95;;;;;;;-143.85;100.00;70650.75;4938687;28;20038;-84
2022/10/09 04:13:56;;;;;;;3.40;2.03;;;;;;;-143.85;100.00;70650.75;4956636;29;20040;-84
2022/10/09 04:16:22;;;;;;;2.25;1.70;;;;;;;-143.85;100.00;70650.75;4956716;29;20026;-85
2022/10/09 04:18:47;;;;;;;6.43;1.95;;;;;;;-143.85;100.00;70650.75;4939643;29;20031;-84
2022/10/09 04:21:13;;;;;;;3.90;2.28;;;;;;;-143.85;100.00;70650.75;4939358;29;20042;-84
2022/10/09 04:23:39;;;;;;;2.47;2.25;;;;;;;-143.85;100.00;70650.75;4939574;29;20081;-84
2022/10/09 04:26:05;;;;;;;4.53;2.20;;;;;;;-143.85;100.00;70650.75;4939741;29;20035;-85
2022/10/09 04:28:31;;;;;;;3.38;2.72;;;;;;;-143.85;100.00;70650.75;4936747;29;20042;-86
2022/10/09 04:30:57;;;;;;;6.30;2.00;;;;;;;-143.85;100.00;70650.75;4929328;29;20023;-85
2022/10/09 04:33:23;;;;;;;6.13;2.33;;;;;;;-143.85;100.00;70650.75;4939526;29;20175;-86
2022/10/09 04:35:50;;;;;;;4.10;1.73;;;;;;;-143.85;100.00;70650.75;4939611;29;20027;-85
2022/10/09 04:38:16;;;;;;;10.03;2.33;;;;;;;-143.85;100.00;70650.75;4939236;29;20032;-86
2022/10/09 04:40:42;;;;;;;2.60;1.67;;;;;;;-143.85;100.00;70650.75;4939034;29;20632;-85
2022/10/09 04:43:07;;;;;;;9.45;2.47;;;;;;;-143.85;100.00;70650.75;4932269;29;20112;-86
2022/10/09 04:45:37;;;;;;;3.33;2.58;;;;;;;-143.85;100.00;70650.75;4939375;29;20035;-85
2022/10/09 04:48:03;;;;;;;2.97;1.77;;;;;;;-143.85;100.00;70650.75;4939276;29;20042;-86
2022/10/09 04:50:28;;;;;;;5.30;1.45;;;;;;;-143.85;100.00;70650.75;4939169;29;20055;-86
2022/10/09 04:52:54;;;;;;;7.10;1.75;;;;;;;-143.85;100.00;70650.75;4939218;29;20054;-86
2022/10/09 04:55:19;;;;;;;2.88;2.28;;;;;;;-143.85;100.00;70650.75;4939197;29;20065;-85
2022/10/09 04:57:45;;;;;;;4.10;2.10;;;;;;;-143.85;100.00;70650.75;4939179;29;20035;-86
2022/10/09 05:00:11;;;;;;;3.33;1.70;;;;;;;-143.85;100.00;70650.75;4939112;29;20441;-86
2022/10/09 05:02:36;;;;;;;1.60;1.50;;;;;;;-143.85;100.00;70650.75;4938872;29;20028;-86
2022/10/09 05:05:02;;;;;;;3.58;2.10;;;;;;;-143.85;100.00;70650.75;4938704;29;20393;-87
2022/10/09 05:07:27;;;;;;;3.67;1.48;;;;;;;-143.85;100.00;70650.75;4938848;29;20411;-87
2022/10/09 05:09:53;;;;;;;2.35;1.27;;;;;;;-143.85;100.00;70650.75;4938885;29;20095;-86
2022/10/09 05:12:19;;;;;;;2.33;2.13;;;;;;;-143.85;100.00;70650.75;4938784;29;20035;-87
2022/10/09 05:14:44;;;;;;;13.80;2.90;;;;;;;-143.85;100.00;70650.75;4955867;29;20034;-87
2022/10/09 05:17:10;;;;;;;2.65;1.77;;;;;;;-143.85;100.00;70650.75;4938605;29;20046;-86
2022/10/09 05:19:35;;;;;;;5.45;2.67;;;;;;;-143.85;100.00;70650.75;4938791;29;20040;-87
2022/10/09 05:22:01;;;;;;;1.50;1.40;;;;;;;-143.85;100.00;70650.75;4937784;29;20093;-87
2022/10/09 05:24:27;;;;;;;3.45;2.22;;;;;;;-143.85;100.00;70650.75;4938715;29;20039;-86
2022/10/09 05:26:53;;;;;;;2.50;1.58;;;;;;;-143.85;100.00;70650.75;4955546;29;20038;-86
2022/10/09 05:29:19;;;;;;;3.45;1.98;;;;;;;-143.85;100.00;70650.75;4938871;29;20031;-86
2022/10/09 05:31:44;;;;;;;5.30;2.15;;;;;;;-143.85;100.00;70650.75;4938428;29;20035;-86
2022/10/09 05:34:10;;;;;;;11.20;3.20;;;;;;;-143.85;100.00;70650.75;4938380;29;20034;-87
2022/10/09 05:36:36;;;;;;;6.07;2.42;;;;;;;-143.85;100.00;70650.75;4938465;29;20023;-87
2022/10/09 05:39:02;;;;;;;4.30;2.42;;;;;;;-143.85;100.00;70650.75;4938404;29;20551;-87
2022/10/09 05:41:30;;;;;;;4.95;2.03;;;;;;;-143.85;100.00;70650.75;4938633;29;20106;-86
2022/10/09 05:44:00;;;;;;;4.55;2.33;;;;;;;-143.85;100.00;70650.75;4938313;29;20054;-86
2022/10/09 05:46:27;;;;;;;11.75;3.75;;;;;;;-143.85;100.00;70650.75;4937918;29;20031;-86
2022/10/09 05:49:05;;;;;;;13.32;3.10;;;;;;;-143.85;100.00;70650.75;4938120;29;20041;-85
2022/10/09 05:51:34;;;;;;;3.88;2.80;;;;;;;-143.85;100.00;70650.75;4944601;28;20224;-86
2022/10/09 05:54:02;;;;;;;11.05;2.75;;;;;;;-143.85;100.00;70650.75;4938151;29;20031;-86
2022/10/09 05:56:33;;;;;;;2.65;2.28;;;;;;;-143.85;100.00;70650.75;4955078;28;20098;-85
2022/10/09 05:59:01;;;;;;;3.92;2.60;;;;;;;-143.85;100.00;70650.75;4929316;29;20062;-84
2022/10/09 06:01:30;;;;;;;6.72;2.58;;;;;;;-143.85;100.00;70650.75;4930042;29;20121;-87
2022/10/09 06:03:57;;;;;;;6.38;2.03;;;;;;;-143.85;100.00;70650.75;4923781;29;20027;-82
2022/10/09 06:06:25;;;;;;;3.08;2.13;;;;;;;-143.85;100.00;70650.75;4937126;29;20086;-82
2022/10/09 06:08:51;;;;;;;2.30;1.90;;;;;;;-143.85;100.00;70650.75;4937349;29;20030;-82
2022/10/09 06:11:22;;;;;;;1.60;1.50;;;;;;;-143.85;100.00;70650.75;4936863;29;20039;-82
2022/10/09 06:13:48;;;;;;;6.05;1.67;;;;;;;-143.85;100.00;70650.75;4937142;29;20487;-85
2022/10/09 06:16:16;;;;;;;4.25;1.60;;;;;;;-143.85;100.00;70650.75;4937431;29;20039;-83
2022/10/09 06:18:45;;;;;;;2.77;1.60;;;;;;;-143.85;100.00;70650.75;4937558;29;20385;-84
2022/10/09 06:21:10;;;;;;;7.28;1.95;;;;;;;-143.85;100.00;70650.75;4951996;29;20763;-91
2022/10/09 06:23:36;;;;;;;4.72;1.80;;;;;;;-143.85;100.00;70650.75;4928712;29;20038;-92
2022/10/09 06:26:07;;;;;;;3.55;2.15;;;;;;;-143.85;100.00;70650.75;4928332;29;20027;-92
2022/10/09 06:28:34;;;;;;;3.70;2.28;;;;;;;-143.85;100.00;70650.75;4927139;29;20039;-91
2022/10/09 06:31:05;;;;;;;2.38;1.60;;;;;;;-143.85;100.00;70650.75;4933774;29;20488;-89
2022/10/09 06:33:32;;;;;;;6.70;2.40;;;;;;;-143.85;100.00;70650.75;4928707;29;20035;-89
2022/10/09 06:36:03;;;;;;;4.25;2.13;;;;;;;-143.85;100.00;70650.75;4940894;29;20020;-88
2022/10/09 06:38:29;;;;;;;2.33;1.80;;;;;;;-143.85;100.00;70650.75;4936090;29;20040;-88
2022/10/09 06:40:54;;;;;;;3.17;2.33;;;;;;;-143.85;100.00;70650.75;4940218;29;20078;-88
2022/10/09 06:43:20;;;;;;;3.97;2.42;;;;;;;-143.85;100.00;70650.75;4941375;29;20062;-88
2022/10/09 06:45:45;;;;;;;3.38;2.38;;;;;;;-143.85;100.00;70650.75;4941423;29;20023;-88
2022/10/09 06:48:11;;;;;;;3.00;1.80;;;;;;;-143.85;100.00;70650.75;4941769;29;20031;-90
2022/10/09 06:50:36;;;;;;;3.55;1.83;;;;;;;-143.85;100.00;70650.75;4941485;29;20484;-88
2022/10/09 06:53:04;;;;;;;3.28;2.10;;;;;;;-143.85;100.00;70650.75;4941216;29;20499;-88
2022/10/09 06:55:29;;;;;;;3.57;2.13;;;;;;;-143.85;100.00;70650.75;4941225;29;20030;-86
2022/10/09 06:57:55;;;;;;;3.17;2.25;;;;;;;-143.85;100.00;70650.75;4941403;29;20019;-88
2022/10/09 07:00:20;;;;;;;2.40;1.33;;;;;;;-143.85;100.00;70650.75;4941485;29;20039;-88
2022/10/09 07:02:46;;;;;;;3.45;1.70;;;;;;;-143.85;100.00;70650.75;4941346;29;20522;-88
2022/10/09 07:05:11;;;;;;;2.95;1.52;;;;;;;-143.85;100.00;70650.75;4941789;29;20039;-88
2022/10/09 07:07:40;;;;;;;1.92;1.63;;;;;;;-143.85;100.00;70650.75;4941486;29;20038;-88
2022/10/09 07:10:07;;;;;;;1.85;1.17;;;;;;;-143.85;100.00;70650.75;4941247;29;20035;-88
2022/10/09 07:12:36;;;;;;;1.60;1.50;;;;;;;-143.85;100.00;70650.75;4941353;29;20039;-88
2022/10/09 07:15:04;;;;;;;2.80;1.70;;;;;;;-143.85;100.00;70650.75;4941152;29;20039;-88
2022/10/09 07:17:29;;;;;;;3.60;1.60;;;;;;;-143.85;100.00;70650.75;4941381;29;20042;-88
2022/10/09 07:19:55;;;;;;;2.65;1.73;;;;;;;-143.85;100.00;70650.75;4941179;29;20476;-87
2022/10/09 07:22:20;;;;;;;1.73;1.35;;;;;;;-143.85;100.00;70650.75;4939066;29;20063;-86
2022/10/09 07:24:46;;;;;;;1.88;1.17;;;;;;;-143.85;100.00;70650.75;4938698;29;20035;-88
2022/10/09 07:27:12;;;;;;;1.60;1.35;;;;;;;-143.85;100.00;70650.75;4938436;29;20031;-88
2022/10/09 07:29:37;;;;;;;2.22;1.60;;;;;;;-143.85;100.00;70650.75;4936844;29;20023;-84
2022/10/09 07:32:02;;;;;;;7.10;1.90;;;;;;;-143.85;100.00;70650.75;4940284;29;20157;-85
2022/10/09 07:34:28;;;;;;;2.25;1.40;;;;;;;-143.85;100.00;70650.75;4940253;29;20023;-84
2022/10/09 07:36:54;;;;;;;5.63;1.67;;;;;;;-143.85;100.00;70650.75;4940334;29;20090;-84
2022/10/09 07:39:20;;;;;;;1.33;1.23;;;;;;;-143.85;100.00;70650.75;4957403;28;20034;-85
2022/10/09 07:41:49;;;;;;;1.30;1.20;;;;;;;-143.85;100.00;70650.75;4957328;29;20019;-85
2022/10/09 07:44:15;;;;;;;3.22;1.98;;;;;;;-143.85;100.00;70650.75;4936997;28;20046;-83
2022/10/09 07:46:40;;;;;;;6.18;2.58;;;;;;;-143.85;100.00;70650.75;4939337;29;20178;-84
2022/10/09 07:49:06;;;;;;;2.13;1.75;;;;;;;-143.85;100.00;70650.75;4939957;29;20042;-86
2022/10/09 07:51:32;;;;;;;1.98;1.25;;;;;;;-143.85;100.00;70650.75;4939565;29;20055;-83
2022/10/09 07:53:59;;;;;;;23.33;9.70;;;;;;;-143.85;100.00;70650.75;4940053;29;20451;-84
2022/10/09 07:56:28;;;;;;;13.55;4.05;;;;;;;-143.85;100.00;70650.75;4957133;28;20028;-84
2022/10/09 07:58:56;;;;;;;5.68;1.70;;;;;;;-143.85;100.00;70650.75;4939753;29;20106;-80
2022/10/09 08:01:22;;;;;;;;;;;;;;;-143.85;100.00;70650.75;4926781;29;20023;-82
2022/10/09 08:03:49;;;;;;;8.07;2.28;;;;;;;-143.85;100.00;70650.75;4939384;29;20057;-80
2022/10/09 08:06:15;;;;;;;4.22;1.58;;;;;;;-143.85;100.00;70650.75;4939491;29;20039;-80
2022/10/09 08:08:41;;;;;;;3.60;1.38;;;;;;;-143.85;100.00;70650.75;4939963;29;20031;-83
2022/10/09 08:11:13;;;;;;;2.90;1.77;;;;;;;-143.85;100.00;70650.75;4939442;29;20505;-82
2022/10/09 08:13:39;;;;;;;2.30;1.80;;;;;;;-143.85;100.00;70650.75;4939265;29;20032;-82
2022/10/09 08:16:05;;;;;;;2.85;1.58;;;;;;;-143.85;100.00;70650.75;4939125;29;20057;-83
2022/10/09 08:18:31;;;;;;;14.57;2.50;;;;;;;-143.85;100.00;70650.75;4939189;29;20031;-82
2022/10/09 08:21:02;;;;;;;3.78;1.92;;;;;;;-143.85;100.00;70650.75;4955983;28;20027;-82
2022/10/09 08:23:28;;;;;;;3.45;2.25;;;;;;;-143.85;100.00;70650.75;4939073;29;20031;-82
2022/10/09 08:25:53;;;;;;;3.35;1.58;;;;;;;-143.85;100.00;70650.75;4938977;29;20038;-82
2022/10/09 08:28:19;;;;;;;2.00;1.10;;;;;;;-143.85;100.00;70650.75;4938894;29;20054;-83
2022/10/09 08:30:45;;;;;;;3.80;1.77;;;;;;;-143.85;100.00;70650.75;4939323;29;20077;-82
2022/10/09 08:33:10;;;;;;;3.20;1.85;;;;;;;-143.85;100.00;70650.75;4956078;29;20476;-82
2022/10/09 08:35:36;;;;;;;7.38;2.22;;;;;;;-143.85;100.00;70650.75;4939240;29;20479;-81
2022/10/09 08:38:01;;;;;;;3.42;1.92;;;;;;;-143.85;100.00;70650.75;4939333;29;20042;-85
2022/10/09 08:40:39;;;;;;;2.13;1.83;;;;;;;-143.85;100.00;70650.75;4938906;29;20030;-85
2022/10/09 08:43:06;;;;;;;8.32;2.25;;;;;;;-143.85;100.00;70650.75;4939423;29;20035;-85
2022/10/09 08:45:33;;;;;;;4.32;2.22;;;;;;;-143.85;100.00;70650.75;4938851;29;20027;-85
2022/10/09 08:48:11;;;;;;;3.17;1.70;;;;;;;-143.85;100.00;70650.75;4933559;29;20548;-84
2022/10/09 08:50:43;;;;;;;4.05;1.83;;;;;;;-143.85;100.00;70650.75;4927525;29;20055;-88
2022/10/09 08:53:45;;;;;;;3.28;2.42;;;;;;;-143.85;100.00;70650.75;4930040;29;20116;-85
2022/10/09 08:56:13;;;;;;;3.97;1.95;;;;;;;-143.85;100.00;70650.75;4931489;29;20515;-87
2022/10/09 08:58:41;;;;;;;8.13;4.07;;;;;;;-143.85;100.00;70650.75;4931000;29;20034;-87
2022/10/09 09:01:25;;;;;;;4.10;2.13;;;;;;;-143.85;100.00;70650.75;4932153;29;20031;-83
2022/10/09 09:04:17;;;;;;;4.85;2.35;;;;;;;-143.85;100.00;70650.75;4930051;29;20046;-88
2022/10/09 09:06:56;;;;;;;6.30;2.60;;;;;;;-143.85;100.00;70650.75;4921185;29;20067;-86
2022/10/09 09:09:52;;;;;;;10.02;2.47;;;;;;;-143.85;100.00;70650.75;4933102;29;20110;-84
2022/10/09 09:12:43;;;;;;;3.03;1.80;;;;;;;-143.85;100.00;70650.75;4938629;29;20039;-87
2022/10/09 09:15:54;;;;;;;2.53;1.55;;;;;;;-143.85;100.00;70650.75;4938352;29;20028;-87
2022/10/09 09:18:40;;;;;;;8.75;2.85;;;;;;;-143.85;100.00;70650.75;4875490;29;20033;-86
2022/10/09 09:21:20;;;;;;;3.67;2.20;;;;;;;-143.85;100.00;70650.75;4949486;29;20034;-89
2022/10/09 09:23:47;;;;;;;4.45;1.95;;;;;;;-143.85;100.00;70650.75;4939262;29;20038;-84
2022/10/09 09:26:16;;;;;;;3.90;2.22;;;;;;;-143.85;100.00;70650.75;4955800;29;20031;-88
2022/10/09 09:28:43;;;;;;;3.92;2.47;;;;;;;-143.85;100.00;70650.75;4938502;29;20031;-89
2022/10/09 09:31:26;;;;;;;4.57;1.58;;;;;;;-143.85;100.00;70650.75;4955686;29;20030;-87
2022/10/09 09:34:00;;;;;;;3.42;1.90;;;;;;;-143.85;100.00;70650.75;4938177;29;20488;-85
2022/10/09 09:36:39;;;;;;;3.85;1.38;;;;;;;-143.85;100.00;70650.75;4938214;29;20117;-82
2022/10/09 09:39:05;;;;;;;2.33;1.65;;;;;;;-143.85;100.00;70650.75;4936878;29;20491;-82
2022/10/09 09:41:30;;;;;;;2.65;1.80;;;;;;;-143.85;100.00;70650.75;4937790;29;20034;-84
2022/10/09 09:43:56;;;;;;;3.78;1.77;;;;;;;-143.85;100.00;70650.75;4937885;29;20046;-86
2022/10/09 09:46:25;;;;;;;2.90;2.13;;;;;;;-143.85;100.00;70650.75;4955373;29;20106;-88
2022/10/09 09:48:52;;;;;;;2.70;1.80;;;;;;;-143.85;100.00;70650.75;4938360;29;20035;-86
2022/10/09 09:51:26;;;;;;;3.38;2.00;;;;;;;-143.85;100.00;70650.75;4955440;28;20102;-86
2022/10/09 09:54:02;;;;;;;31.15;3.15;;;;;;;-143.85;100.00;70650.75;4936367;29;20046;-86
2022/10/09 09:56:51;;;;;;;3.97;2.05;;;;;;;-143.85;100.00;70650.75;4948020;29;20044;-88
2022/10/09 09:59:31;;;;;;;4.70;2.10;;;;;;;-143.85;100.00;70650.75;4928533;29;20027;-86
2022/10/09 10:02:10;;;;;;;2.72;2.00;;;;;;;-143.85;100.00;70650.75;4937824;28;20033;-85
2022/10/09 10:04:35;;;;;;;2.92;1.65;;;;;;;-143.85;100.00;70650.75;4926539;29;20416;-85
2022/10/09 10:07:01;;;;;;;2.13;1.48;;;;;;;-143.85;100.00;70650.75;4948747;29;20035;-85
2022/10/09 10:09:27;;;;;;;2.55;1.60;;;;;;;-143.85;100.00;70650.75;4937228;29;20027;-85
2022/10/09 10:11:52;;;;;;;2.92;1.83;;;;;;;-143.85;100.00;70650.75;4937634;29;20034;-84
2022/10/09 10:14:17;;;;;;;2.60;1.67;;;;;;;-143.85;100.00;70650.75;4937496;29;20043;-84
2022/10/09 10:16:48;;;;;;;3.97;2.00;;;;;;;-143.85;100.00;70650.75;4937716;29;20046;-84
2022/10/09 10:19:25;;;;;;;3.90;2.30;;;;;;;-143.85;100.00;70650.75;4937727;29;20031;-84
2022/10/09 10:22:02;;;;;;;1.98;1.73;;;;;;;-143.85;100.00;70650.75;4937713;29;20027;-84
2022/10/09 10:24:33;;;;;;;3.45;2.15;;;;;;;-143.85;100.00;70650.75;4962154;28;20028;-83
2022/10/09 10:27:28;;;;;;;4.32;2.65;;;;;;;-143.85;100.00;70650.75;4937678;29;20130;-85
2022/10/09 10:30:00;;;;;;;9.82;1.35;;;;;;;-143.85;100.00;70650.75;4937395;29;20038;-86
2022/10/09 10:32:31;;;;;;;2.72;2.00;;;;;;;-143.85;100.00;70650.75;4936603;29;20093;-86
2022/10/09 10:35:00;;;;;;;4.45;1.48;;;;;;;-143.85;100.00;70650.75;4934579;29;20031;-85
2022/10/09 10:37:52;;;;;;;2.40;1.45;;;;;;;-143.85;100.00;70650.75;4945943;29;20396;-84
2022/10/09 10:40:25;;;;;;;3.50;1.88;;;;;;;-143.85;100.00;70650.75;4938314;29;20031;-85
2022/10/09 10:43:08;;;;;;;2.58;1.40;;;;;;;-143.85;100.00;70650.75;4937480;29;20127;-85
2022/10/09 10:45:47;;;;;;;2.17;1.42;;;;;;;-143.85;100.00;70650.75;4937387;29;20039;-85
2022/10/09 10:48:32;;;;;;;2.50;1.73;;;;;;;-143.85;100.00;70650.75;4925166;29;20472;-85
2022/10/09 10:51:05;;;;;;;6.60;1.98;;;;;;;-143.85;100.00;70650.75;4949016;28;20064;-83
2022/10/09 10:53:52;;;;;;;1.92;1.52;;;;;;;-143.85;100.00;70650.75;4937158;29;20024;-88
2022/10/09 10:56:44;;;;;;;2.92;1.58;;;;;;;-143.85;100.00;70650.75;4936650;29;20031;-85
2022/10/09 10:59:38;;;;;;;1.05;1.00;;;;;;;-143.85;100.00;70650.75;4915238;29;20110;-87
2022/10/09 11:02:31;;;;;;;2.67;1.40;;;;;;;-143.85;100.00;70650.75;4954332;28;20114;-85
2022/10/09 11:05:15;;;;;;;1.65;1.38;;;;;;;-143.85;100.00;70650.75;4936465;29;20042;-89
2022/10/09 11:07:51;;;;;;;1.55;1.40;;;;;;;-143.85;100.00;70650.75;4948964;29;20028;-87
2022/10/09 11:10:28;;;;;;;1.50;1.40;;;;;;;-143.85;100.00;70650.75;4945983;29;20487;-88
2022/10/09 11:13:11;;;;;;;2.00;1.80;;;;;;;-143.85;100.00;70650.75;4949392;29;20043;-87
2022/10/09 11:15:52;;;;;;;1.75;1.00;;;;;;;-143.85;100.00;70650.75;4931064;29;20032;-85
2022/10/09 11:18:45;;;;;;;1.70;1.27;;;;;;;-143.85;100.00;70650.75;4933850;29;20042;-86
2022/10/09 11:21:22;;;;;;;3.60;1.45;;;;;;;-143.85;100.00;70650.75;4929597;29;20028;-80
2022/10/09 11:24:12;;;;;;;2.20;1.20;;;;;;;-143.85;100.00;70650.75;4936539;29;20035;-81